createdAt,value
2023-03-04T00:01:14.561Z,25.83
2023-03-04T00:03:42.766Z,26.47
2023-03-04T00:06:10.705Z,25.30
2023-03-04T00:08:38.611Z,25.57
2023-03-04T00:11:06.357Z,25.40
2023-03-04T00:13:34.307Z,23.67
2023-03-04T00:16:01.949Z,25.10
2023-03-04T00:18:29.950Z,25.67
2023-03-04T00:20:57.677Z,23.93
2023-03-04T00:23:25.791Z,23.30
2023-03-04T00:25:53.462Z,24.40
2023-03-04T00:28:21.307Z,24.60
2023-03-04T00:30:49.017Z,22.93
2023-03-04T00:33:17.422Z,22.93
2023-03-04T00:35:45.304Z,22.50
2023-03-04T00:38:13.079Z,23.00
2023-03-04T00:40:40.773Z,24.27
2023-03-04T00:43:08.758Z,24.17
2023-03-04T00:45:36.609Z,23.27
2023-03-04T00:48:04.744Z,24.47
2023-03-04T00:50:32.012Z,24.17
2023-03-04T00:52:59.931Z,25.53
2023-03-04T00:55:27.538Z,25.13
2023-03-04T00:57:58.464Z,25.80
2023-03-04T01:00:26.646Z,25.93
2023-03-04T01:02:54.667Z,26.37
2023-03-04T01:05:22.550Z,25.70
2023-03-04T01:07:50.537Z,24.17
2023-03-04T01:10:19.340Z,26.40
2023-03-04T01:12:47.442Z,23.90
2023-03-04T01:15:15.412Z,22.37
2023-03-04T01:17:43.371Z,23.40
2023-03-04T01:20:11.302Z,21.33
2023-03-04T01:22:39.278Z,23.23
2023-03-04T01:25:07.186Z,20.77
2023-03-04T01:27:35.259Z,22.33
2023-03-04T01:30:03.067Z,22.20
2023-03-04T01:32:31.035Z,21.90
2023-03-04T01:34:58.762Z,20.80
2023-03-04T01:37:26.844Z,21.50
2023-03-04T01:39:54.613Z,22.60
2023-03-04T01:42:24.691Z,22.67
2023-03-04T01:44:52.747Z,21.90
2023-03-04T01:47:24.151Z,22.30
2023-03-04T01:49:55.121Z,22.00
2023-03-04T01:52:23.607Z,22.40
2023-03-04T01:54:51.642Z,23.50
2023-03-04T01:57:22.004Z,23.37
2023-03-04T02:00:19.315Z,22.40
2023-03-04T02:02:49.803Z,21.23
2023-03-04T02:05:18.255Z,22.40
2023-03-04T02:07:46.208Z,21.90
2023-03-04T02:10:13.921Z,21.90
2023-03-04T02:12:42.468Z,21.53
2023-03-04T02:15:10.368Z,21.70
2023-03-04T02:17:38.316Z,21.70
2023-03-04T02:20:24.373Z,21.87
2023-03-04T02:23:04.772Z,21.40
2023-03-04T02:25:39.564Z,20.70
2023-03-04T02:28:07.565Z,19.87
2023-03-04T02:30:35.295Z,20.33
2023-03-04T02:33:03.255Z,18.90
2023-03-04T02:35:31.349Z,19.43
2023-03-04T02:37:59.269Z,19.30
2023-03-04T02:40:34.463Z,18.93
2023-03-04T02:43:02.659Z,18.80
2023-03-04T02:45:39.882Z,18.03
2023-03-04T02:48:09.757Z,19.10
2023-03-04T02:50:42.117Z,17.90
2023-03-04T02:53:10.068Z,18.83
2023-03-04T02:55:37.744Z,19.03
2023-03-04T02:58:05.950Z,18.10
2023-03-04T03:00:33.649Z,16.60
2023-03-04T03:03:01.633Z,18.17
2023-03-04T03:05:32.446Z,18.30
2023-03-04T03:08:01.115Z,17.93
2023-03-04T03:10:29.163Z,18.23
2023-03-04T03:12:57.492Z,17.97
2023-03-04T03:15:25.276Z,18.77
2023-03-04T03:17:53.180Z,17.47
2023-03-04T03:20:21.242Z,15.93
2023-03-04T03:22:49.202Z,15.53
2023-03-04T03:25:17.198Z,16.20
2023-03-04T03:27:45.088Z,17.13
2023-03-04T03:30:15.576Z,16.53
2023-03-04T03:32:43.513Z,17.20
2023-03-04T03:35:11.252Z,16.23
2023-03-04T03:37:39.200Z,15.87
2023-03-04T03:40:07.117Z,16.07
2023-03-04T03:42:35.204Z,14.70
2023-03-04T03:45:02.888Z,15.73
2023-03-04T03:47:30.836Z,14.37
2023-03-04T03:49:58.450Z,15.87
2023-03-04T03:52:26.385Z,16.63
2023-03-04T03:54:54.011Z,15.77
2023-03-04T03:57:21.925Z,15.07
2023-03-04T03:59:49.527Z,15.50
2023-03-04T04:02:17.495Z,16.70
2023-03-04T04:04:45.293Z,19.37
2023-03-04T04:07:13.148Z,17.07
2023-03-04T04:09:40.829Z,15.90
2023-03-04T04:12:08.955Z,16.50
2023-03-04T04:14:36.842Z,16.27
2023-03-04T04:17:04.815Z,15.97
2023-03-04T04:19:32.561Z,18.33
2023-03-04T04:22:00.405Z,16.70
2023-03-04T04:24:28.088Z,16.10
2023-03-04T04:26:56.082Z,17.70
2023-03-04T04:29:23.904Z,14.57
2023-03-04T04:31:52.013Z,14.33
2023-03-04T04:34:19.783Z,15.07
2023-03-04T04:36:47.609Z,14.50
2023-03-04T04:39:15.207Z,15.50
2023-03-04T04:41:44.267Z,15.03
2023-03-04T04:44:12.257Z,13.83
2023-03-04T04:46:40.700Z,13.13
2023-03-04T04:49:08.678Z,14.10
2023-03-04T04:51:38.515Z,13.07
2023-03-04T04:54:06.371Z,13.20
2023-03-04T04:56:34.443Z,12.93
2023-03-04T04:59:04.911Z,14.10
2023-03-04T05:01:33.012Z,12.80
2023-03-04T05:04:00.646Z,13.17
2023-03-04T05:06:28.657Z,12.90
2023-03-04T05:08:56.380Z,12.47
2023-03-04T05:11:24.385Z,12.23
2023-03-04T05:13:52.155Z,11.67
2023-03-04T05:16:20.281Z,12.40
2023-03-04T05:18:48.156Z,12.97
2023-03-04T05:21:16.267Z,11.43
2023-03-04T05:23:44.151Z,12.67
2023-03-04T05:26:15.033Z,11.97
2023-03-04T05:28:42.729Z,12.90
2023-03-04T05:31:10.605Z,12.80
2023-03-04T05:33:38.560Z,12.40
2023-03-04T05:36:07.750Z,11.90
2023-03-04T05:38:35.726Z,11.87
2023-03-04T05:41:08.150Z,12.33
2023-03-04T05:43:36.884Z,13.00
2023-03-04T05:46:05.043Z,10.93
2023-03-04T05:48:32.803Z,11.97
2023-03-04T05:51:01.937Z,11.00
2023-03-04T05:53:29.553Z,10.90
2023-03-04T05:56:01.469Z,11.77
2023-03-04T05:58:29.868Z,11.57
2023-03-04T06:01:01.091Z,11.70
2023-03-04T06:03:28.757Z,11.67
2023-03-04T06:05:57.024Z,11.40
2023-03-04T06:08:24.740Z,12.23
2023-03-04T06:10:54.762Z,11.13
2023-03-04T06:13:22.623Z,11.27
2023-03-04T06:15:55.055Z,12.10
2023-03-04T06:18:23.147Z,11.10
2023-03-04T06:20:51.540Z,11.37
2023-03-04T06:23:19.151Z,11.33
2023-03-04T06:25:47.124Z,11.53
2023-03-04T06:28:14.694Z,11.20
2023-03-04T06:30:42.557Z,12.17
2023-03-04T06:33:10.130Z,11.53
2023-03-04T06:35:38.162Z,10.57
2023-03-04T06:38:05.811Z,10.97
2023-03-04T06:40:33.799Z,10.80
2023-03-04T06:43:01.626Z,10.73
2023-03-04T06:45:29.735Z,10.03
2023-03-04T06:47:57.706Z,10.70
2023-03-04T06:50:25.914Z,10.27
2023-03-04T06:52:53.661Z,10.27
2023-03-04T06:55:21.532Z,10.27
2023-03-04T06:57:49.220Z,10.23
2023-03-04T07:00:17.509Z,8.77
2023-03-04T07:02:45.259Z,11.03
2023-03-04T07:05:13.849Z,9.20
2023-03-04T07:07:42.189Z,10.60
2023-03-04T07:10:10.692Z,10.50
2023-03-04T07:12:38.364Z,10.10
2023-03-04T07:15:06.685Z,10.20
2023-03-04T07:17:35.003Z,10.00
2023-03-04T07:20:03.155Z,9.57
2023-03-04T07:22:30.990Z,9.80
2023-03-04T07:24:58.993Z,11.47
2023-03-04T07:27:26.980Z,9.53
2023-03-04T07:29:54.619Z,9.20
2023-03-04T07:32:22.281Z,9.57
2023-03-04T07:34:50.462Z,9.60
2023-03-04T07:37:18.250Z,10.27
2023-03-04T07:39:46.162Z,10.47
2023-03-04T07:42:14.192Z,10.43
2023-03-04T07:44:44.501Z,11.03
2023-03-04T07:47:13.201Z,9.43
2023-03-04T07:49:41.312Z,10.87
2023-03-04T07:52:09.581Z,10.43
2023-03-04T07:54:37.613Z,9.67
2023-03-04T07:57:05.316Z,10.27
2023-03-04T07:59:33.318Z,10.97
2023-03-04T08:02:00.987Z,9.80
2023-03-04T08:04:29.019Z,11.03
2023-03-04T08:06:56.746Z,9.53
2023-03-04T08:09:24.965Z,13.70
2023-03-04T08:11:52.712Z,14.77
2023-03-04T08:14:20.881Z,9.77
2023-03-04T08:16:48.530Z,10.00
2023-03-04T08:19:16.653Z,11.30
2023-03-04T08:21:44.372Z,9.67
2023-03-04T08:24:12.545Z,10.73
2023-03-04T08:26:43.351Z,10.60
2023-03-04T08:29:21.704Z,10.23
2023-03-04T08:31:50.629Z,10.80
2023-03-04T08:34:20.065Z,10.30
2023-03-04T08:36:47.928Z,8.40
2023-03-04T08:39:18.137Z,8.73
2023-03-04T08:41:46.527Z,9.87
2023-03-04T08:44:15.098Z,9.30
2023-03-04T08:46:43.730Z,11.13
2023-03-04T08:49:13.126Z,9.07
2023-03-04T08:51:43.108Z,10.60
2023-03-04T08:54:11.278Z,9.97
2023-03-04T08:56:39.176Z,9.80
2023-03-04T08:59:07.334Z,10.53
2023-03-04T09:01:35.393Z,10.00
2023-03-04T09:04:03.526Z,9.23
2023-03-04T09:06:31.525Z,10.47
2023-03-04T09:08:59.729Z,9.43
2023-03-04T09:11:27.582Z,10.20
2023-03-04T09:13:55.710Z,12.70
2023-03-04T09:16:23.640Z,10.17
2023-03-04T09:18:51.916Z,13.13
2023-03-04T09:21:20.424Z,11.93
2023-03-04T09:23:48.754Z,27.13
2023-03-04T09:26:22.693Z,13.60
2023-03-04T09:28:52.806Z,10.67
2023-03-04T09:31:20.933Z,16.07
2023-03-04T09:33:49.603Z,25.67
2023-03-04T09:36:17.772Z,18.03
2023-03-04T09:38:45.989Z,14.70
2023-03-04T09:41:27.042Z,20.87
2023-03-04T09:43:55.649Z,20.37
2023-03-04T09:46:39.564Z,13.60
2023-03-04T09:49:08.063Z,22.87
2023-03-04T09:52:01.757Z,24.57
2023-03-04T09:55:08.122Z,22.73
2023-03-04T09:57:57.537Z,16.57
2023-03-04T10:00:34.269Z,13.67
2023-03-04T10:03:10.480Z,13.40
2023-03-04T10:05:49.355Z,14.17
2023-03-04T10:08:32.264Z,12.40
2023-03-04T10:11:01.973Z,11.10
2023-03-04T10:13:45.313Z,10.00
2023-03-04T10:16:21.748Z,13.00
2023-03-04T10:18:59.458Z,14.50
2023-03-04T10:21:41.159Z,10.57
2023-03-04T10:24:21.723Z,12.83
2023-03-04T10:26:55.070Z,10.90
2023-03-04T10:29:24.770Z,12.90
2023-03-04T10:31:57.245Z,11.87
2023-03-04T10:34:26.628Z,12.53
2023-03-04T10:36:57.100Z,6.33
2023-03-04T10:39:34.008Z,5.07
2023-03-04T10:42:03.752Z,4.90
2023-03-04T10:44:35.692Z,10.10
2023-03-04T10:47:11.576Z,7.73
2023-03-04T10:50:00.146Z,11.90
2023-03-04T10:52:47.177Z,18.00
2023-03-04T10:55:22.575Z,23.40
2023-03-04T10:58:16.402Z,21.53
2023-03-04T11:00:45.609Z,12.97
2023-03-04T11:03:31.707Z,14.33
2023-03-04T11:06:14.356Z,18.07
2023-03-04T11:08:43.194Z,15.80
2023-03-04T11:11:45.243Z,13.13
2023-03-04T11:14:25.480Z,15.17
2023-03-04T11:16:59.213Z,11.93
2023-03-04T11:19:37.676Z,11.07
2023-03-04T11:22:05.994Z,16.30
2023-03-04T11:24:37.194Z,8.40
2023-03-04T11:27:18.653Z,10.37
2023-03-04T11:30:20.516Z,15.10
2023-03-04T11:32:54.199Z,7.43
2023-03-04T11:35:33.637Z,6.37
2023-03-04T11:38:18.536Z,7.00
2023-03-04T11:40:54.146Z,6.47
2023-03-04T11:43:31.477Z,6.47
2023-03-04T11:46:03.871Z,7.47
2023-03-04T11:48:54.583Z,5.40
2023-03-04T11:51:50.026Z,9.00
2023-03-04T11:54:30.191Z,5.83
2023-03-04T11:57:06.260Z,4.20
2023-03-04T11:59:45.887Z,4.83
2023-03-04T12:02:30.466Z,5.17
2023-03-04T12:05:19.768Z,6.33
2023-03-04T12:08:07.687Z,4.63
2023-03-04T12:10:58.639Z,3.70
2023-03-04T12:13:45.741Z,4.40
2023-03-04T12:16:38.856Z,4.43
2023-03-04T12:19:07.180Z,5.43
2023-03-04T12:21:35.171Z,5.70
2023-03-04T12:24:18.250Z,5.13
2023-03-04T12:27:12.024Z,5.30
2023-03-04T12:29:45.788Z,4.77
2023-03-04T12:32:44.250Z,7.87
2023-03-04T12:35:39.938Z,2.67
2023-03-04T12:38:35.177Z,4.37
2023-03-04T12:41:28.506Z,4.50
2023-03-04T12:43:59.050Z,9.20
2023-03-04T12:46:38.679Z,3.75
2023-03-04T12:49:25.211Z,5.97
2023-03-04T12:51:52.974Z,8.25
2023-03-04T12:54:45.976Z,7.90
2023-03-04T12:57:18.097Z,8.95
2023-03-04T13:00:09.375Z,4.22
2023-03-04T13:02:55.264Z,6.20
2023-03-04T13:05:50.890Z,5.85
2023-03-04T13:08:40.163Z,5.93
2023-03-04T13:11:26.930Z,5.55
2023-03-04T13:14:04.792Z,6.03
2023-03-04T13:16:46.614Z,5.90
2023-03-04T13:20:05.710Z,5.90
2023-03-04T13:22:34.355Z,6.35
2023-03-04T13:25:37.853Z,6.30
2023-03-04T13:28:11.948Z,29.05
2023-03-04T13:30:41.281Z,18.05
2023-03-04T13:33:14.237Z,10.85
2023-03-04T13:36:01.382Z,5.03
2023-03-04T13:38:33.969Z,6.18
2023-03-04T13:41:09.009Z,2.97
2023-03-04T13:43:45.013Z,3.95
2023-03-04T13:46:20.965Z,3.65
2023-03-04T13:48:51.883Z,8.57
2023-03-04T13:51:42.455Z,7.70
2023-03-04T13:54:16.134Z,26.20
2023-03-04T13:56:50.505Z,13.00
2023-03-04T13:59:20.882Z,6.72
2023-03-04T14:02:15.595Z,25.98
2023-03-04T14:04:46.416Z,8.65
2023-03-04T14:07:35.544Z,5.07
2023-03-04T14:10:12.721Z,5.15
2023-03-04T14:12:52.080Z,4.47
2023-03-04T14:15:29.127Z,4.72
2023-03-04T14:18:02.827Z,5.70
2023-03-04T14:20:37.553Z,4.40
2023-03-04T14:23:29.113Z,3.72
2023-03-04T14:26:15.720Z,3.13
2023-03-04T14:28:49.676Z,3.67
2023-03-04T14:31:20.545Z,5.38
2023-03-04T14:33:51.603Z,13.57
2023-03-04T14:36:22.302Z,9.40
2023-03-04T14:38:59.131Z,10.98
2023-03-04T14:41:39.240Z,10.53
2023-03-04T14:44:12.411Z,5.87
2023-03-04T14:47:06.025Z,7.67
2023-03-04T14:49:37.871Z,5.50
2023-03-04T14:52:07.319Z,7.37
2023-03-04T14:54:38.938Z,6.87
2023-03-04T14:57:30.018Z,10.77
2023-03-04T14:59:58.558Z,5.80
2023-03-04T15:03:02.748Z,5.10
2023-03-04T15:05:33.808Z,5.60
2023-03-04T15:08:18.820Z,5.83
2023-03-04T15:10:55.918Z,6.50
2023-03-04T15:13:42.042Z,12.17
2023-03-04T15:16:11.056Z,6.80
2023-03-04T15:18:39.122Z,11.10
2023-03-04T15:21:37.856Z,22.30
2023-03-04T15:24:09.003Z,13.13
2023-03-04T15:26:41.378Z,12.47
2023-03-04T15:29:17.820Z,7.63
2023-03-04T15:31:50.202Z,7.90
2023-03-04T15:34:20.550Z,11.70
2023-03-04T15:36:50.996Z,14.57
2023-03-04T15:39:20.050Z,9.70
2023-03-04T15:41:49.222Z,16.37
2023-03-04T15:44:16.684Z,6.80
2023-03-04T15:46:44.604Z,5.50
2023-03-04T15:49:12.350Z,8.83
2023-03-04T15:51:40.346Z,12.73
2023-03-04T15:54:14.589Z,8.77
2023-03-04T15:56:43.405Z,4.83
2023-03-04T15:59:13.839Z,5.30
2023-03-04T16:01:42.315Z,4.30
2023-03-04T16:04:17.493Z,5.87
2023-03-04T16:06:47.812Z,6.03
2023-03-04T16:09:19.848Z,4.70
2023-03-04T16:11:48.385Z,5.77
2023-03-04T16:14:16.835Z,10.83
2023-03-04T16:16:47.081Z,8.93
2023-03-04T16:19:14.922Z,7.17
2023-03-04T16:21:43.188Z,6.90
2023-03-04T16:24:19.245Z,8.70
2023-03-04T16:26:47.989Z,8.20
2023-03-04T16:29:17.278Z,8.23
2023-03-04T16:31:45.586Z,15.47
2023-03-04T16:34:13.609Z,13.13
2023-03-04T16:36:42.105Z,10.00
2023-03-04T16:39:20.042Z,10.17
2023-03-04T16:41:48.259Z,14.73
2023-03-04T16:44:16.169Z,23.67
2023-03-04T16:46:44.709Z,18.37
2023-03-04T16:49:12.640Z,9.97
2023-03-04T16:51:48.632Z,5.67
2023-03-04T16:54:22.636Z,4.40
2023-03-04T16:56:50.560Z,4.57
2023-03-04T16:59:18.445Z,7.20
2023-03-04T17:01:46.386Z,9.23
2023-03-04T17:04:14.090Z,4.37
2023-03-04T17:06:41.884Z,6.53
2023-03-04T17:09:09.856Z,4.70
2023-03-04T17:11:38.281Z,6.13
2023-03-04T17:14:05.699Z,3.87
2023-03-04T17:16:33.525Z,4.80
2023-03-04T17:19:01.067Z,11.00
2023-03-04T17:21:28.768Z,11.60
2023-03-04T17:23:56.214Z,25.83
2023-03-04T17:26:23.897Z,12.07
2023-03-04T17:28:51.775Z,7.73
2023-03-04T17:31:20.823Z,24.13
2023-03-04T17:33:48.961Z,17.70
2023-03-04T17:36:20.781Z,7.23
2023-03-04T17:38:49.643Z,8.70
2023-03-04T17:41:19.028Z,12.97
2023-03-04T17:43:51.476Z,15.27
2023-03-04T17:46:21.990Z,9.90
2023-03-04T17:48:50.389Z,27.80
2023-03-04T17:51:18.604Z,33.50
2023-03-04T17:53:46.548Z,20.67
2023-03-04T17:56:15.057Z,49.67
2023-03-04T17:58:43.546Z,72.10
2023-03-04T18:01:20.425Z,31.20
2023-03-04T18:03:49.131Z,18.60
2023-03-04T18:06:17.413Z,13.07
2023-03-04T18:08:45.778Z,15.87
2023-03-04T18:11:13.421Z,25.10
2023-03-04T18:13:42.272Z,20.80
2023-03-04T18:16:12.072Z,19.63
2023-03-04T18:18:39.788Z,12.47
2023-03-04T18:21:07.884Z,12.03
2023-03-04T18:23:35.936Z,14.70
2023-03-04T18:26:04.632Z,10.73
2023-03-04T18:28:32.496Z,8.83
2023-03-04T18:31:01.198Z,10.20
2023-03-04T18:33:29.885Z,9.40
2023-03-04T18:35:59.763Z,9.60
2023-03-04T18:38:28.058Z,11.03
2023-03-04T18:41:07.207Z,13.90
2023-03-04T18:43:36.020Z,15.63
2023-03-04T18:46:04.000Z,23.00
2023-03-04T18:48:34.544Z,35.17
2023-03-04T18:51:02.723Z,14.93
2023-03-04T18:53:30.874Z,18.63
2023-03-04T18:56:09.897Z,14.50
2023-03-04T18:58:40.150Z,16.87
2023-03-04T19:01:12.199Z,32.10
2023-03-04T19:03:41.829Z,52.83
2023-03-04T19:06:10.173Z,47.23
2023-03-04T19:08:37.950Z,38.00
2023-03-04T19:11:06.484Z,33.60
2023-03-04T19:13:34.821Z,37.40
2023-03-04T19:16:02.866Z,34.83
2023-03-04T19:18:30.789Z,30.23
2023-03-04T19:21:01.218Z,18.90
2023-03-04T19:23:31.409Z,13.97
2023-03-04T19:25:59.524Z,11.17
2023-03-04T19:28:28.067Z,12.10
2023-03-04T19:31:00.730Z,14.00
2023-03-04T19:33:30.908Z,17.27
2023-03-04T19:35:58.668Z,14.93
2023-03-04T19:38:26.979Z,16.93
2023-03-04T19:40:54.658Z,53.43
2023-03-04T19:43:22.867Z,106.00
2023-03-04T19:45:55.651Z,88.63
2023-03-04T19:48:24.383Z,40.33
2023-03-04T19:50:52.103Z,28.43
2023-03-04T19:53:20.565Z,19.53
2023-03-04T19:55:53.776Z,16.00
2023-03-04T19:58:22.301Z,10.83
2023-03-04T20:00:52.216Z,10.10
2023-03-04T20:03:20.467Z,8.30
2023-03-04T20:05:48.411Z,5.80
2023-03-04T20:08:16.666Z,5.83
2023-03-04T20:10:45.011Z,5.67
2023-03-04T20:13:13.209Z,6.60
2023-03-04T20:15:43.301Z,6.27
2023-03-04T20:18:12.012Z,6.87
2023-03-04T20:20:40.618Z,6.77
2023-03-04T20:23:09.645Z,6.57
2023-03-04T20:25:37.235Z,7.83
2023-03-04T20:28:05.725Z,8.63
2023-03-04T20:30:36.128Z,8.57
2023-03-04T20:33:04.689Z,13.00
2023-03-04T20:35:33.442Z,13.57
2023-03-04T20:38:02.566Z,11.40
2023-03-04T20:40:30.481Z,7.90
2023-03-04T20:42:58.954Z,6.77
2023-03-04T20:45:26.958Z,6.50
2023-03-04T20:47:55.499Z,8.17
2023-03-04T20:50:23.557Z,9.70
2023-03-04T20:52:51.662Z,8.10
2023-03-04T20:55:19.783Z,7.70
2023-03-04T20:57:49.836Z,7.70
2023-03-04T21:00:17.377Z,8.00
2023-03-04T21:02:45.737Z,7.17
2023-03-04T21:05:13.892Z,5.50
2023-03-04T21:07:42.228Z,5.60
2023-03-04T21:10:10.976Z,6.20
2023-03-04T21:12:39.294Z,6.87
2023-03-04T21:15:07.518Z,6.27
2023-03-04T21:17:35.793Z,6.77
2023-03-04T21:20:04.093Z,7.23
2023-03-04T21:22:32.352Z,6.60
2023-03-04T21:25:00.289Z,7.00
2023-03-04T21:27:28.720Z,6.53
2023-03-04T21:29:57.330Z,6.70
2023-03-04T21:32:27.122Z,10.73
2023-03-04T21:34:56.007Z,10.50
2023-03-04T21:37:25.553Z,10.70
2023-03-04T21:39:54.588Z,10.93
2023-03-04T21:42:22.861Z,11.30
2023-03-04T21:44:51.766Z,10.83
2023-03-04T21:47:21.070Z,8.07
2023-03-04T21:49:48.818Z,7.90
2023-03-04T21:52:18.518Z,7.87
2023-03-04T21:54:47.908Z,9.47
2023-03-04T21:57:16.298Z,9.80
2023-03-04T21:59:44.044Z,9.67
2023-03-04T22:02:18.280Z,9.30
2023-03-04T22:04:47.141Z,7.07
2023-03-04T22:07:15.350Z,7.13
2023-03-04T22:09:43.348Z,6.60
2023-03-04T22:12:12.348Z,7.80
2023-03-04T22:14:40.149Z,9.07
2023-03-04T22:17:08.558Z,8.60
2023-03-04T22:19:37.632Z,9.47
2023-03-04T22:22:06.657Z,9.63
2023-03-04T22:24:34.781Z,8.57
2023-03-04T22:27:02.934Z,8.33
2023-03-04T22:29:31.050Z,8.63
2023-03-04T22:31:59.400Z,9.47
2023-03-04T22:34:27.317Z,8.83
2023-03-04T22:36:56.199Z,9.70
2023-03-04T22:39:24.162Z,9.93
2023-03-04T22:41:52.476Z,10.30
2023-03-04T22:44:20.347Z,10.23
2023-03-04T22:46:48.529Z,11.33
2023-03-04T22:49:16.272Z,8.00
2023-03-04T22:51:44.954Z,10.80
2023-03-04T22:54:17.129Z,10.10
2023-03-04T22:56:45.509Z,10.27
2023-03-04T22:59:13.859Z,9.17
2023-03-04T23:01:42.560Z,8.37
2023-03-04T23:04:10.654Z,8.40
2023-03-04T23:06:38.715Z,7.70
2023-03-04T23:09:06.943Z,8.27
2023-03-04T23:11:36.201Z,8.07
2023-03-04T23:14:07.550Z,8.90
2023-03-04T23:16:39.600Z,8.47
2023-03-04T23:19:08.337Z,9.07
2023-03-04T23:21:37.849Z,9.00
2023-03-04T23:24:07.533Z,9.23
2023-03-04T23:26:38.902Z,9.03
2023-03-04T23:29:08.145Z,9.30
2023-03-04T23:31:36.497Z,9.47
2023-03-04T23:34:05.195Z,9.20
2023-03-04T23:36:35.612Z,7.03
2023-03-04T23:39:03.809Z,6.47
2023-03-04T23:41:33.123Z,6.50
2023-03-04T23:44:01.669Z,7.17
2023-03-04T23:46:29.949Z,6.80
2023-03-04T23:48:58.082Z,6.03
2023-03-04T23:51:27.266Z,6.13
2023-03-04T23:53:55.407Z,6.53
2023-03-04T23:56:24.826Z,6.97
2023-03-04T23:58:53.027Z,8.87
